sensor_id;sensor_type;location;lat;lon;timestamp;P1;durP1;ratioP1;P2;durP2;ratioP2
22068;SDS011;13887;57.196;-2.100;2023-03-19T00:01:06;11.23;;;10.90;;
22068;SDS011;13887;57.196;-2.100;2023-03-19T00:03:37;11.50;;;11.10;;
22068;SDS011;13887;57.196;-2.100;2023-03-19T00:06:05;11.93;;;11.53;;
22068;SDS011;13887;57.196;-2.100;2023-03-19T00:08:34;12.20;;;11.80;;
22068;SDS011;13887;57.196;-2.100;2023-03-19T00:11:08;11.77;;;11.37;;
22068;SDS011;13887;57.196;-2.100;2023-03-19T00:13:37;11.80;;;11.40;;
22068;SDS011;13887;57.196;-2.100;2023-03-19T00:16:05;11.50;;;11.10;;
22068;SDS011;13887;57.196;-2.100;2023-03-19T00:18:33;11.67;;;11.27;;
22068;SDS011;13887;57.196;-2.100;2023-03-19T00:21:04;12.13;;;11.73;;
22068;SDS011;13887;57.196;-2.100;2023-03-19T00:23:33;11.97;;;11.57;;
22068;SDS011;13887;57.196;-2.100;2023-03-19T00:26:02;11.60;;;11.20;;
22068;SDS011;13887;57.196;-2.100;2023-03-19T00:28:29;11.00;;;10.70;;
22068;SDS011;13887;57.196;-2.100;2023-03-19T00:31:14;10.90;;;10.60;;
22068;SDS011;13887;57.196;-2.100;2023-03-19T00:33:42;12.20;;;11.80;;
22068;SDS011;13887;57.196;-2.100;2023-03-19T00:36:13;11.90;;;11.50;;
22068;SDS011;13887;57.196;-2.100;2023-03-19T00:38:42;11.97;;;11.57;;
22068;SDS011;13887;57.196;-2.100;2023-03-19T00:41:11;12.33;;;11.93;;
22068;SDS011;13887;57.196;-2.100;2023-03-19T00:43:54;11.97;;;11.57;;
22068;SDS011;13887;57.196;-2.100;2023-03-19T00:46:28;11.70;;;11.30;;
22068;SDS011;13887;57.196;-2.100;2023-03-19T00:48:58;12.10;;;11.70;;
22068;SDS011;13887;57.196;-2.100;2023-03-19T00:51:26;11.47;;;11.07;;
22068;SDS011;13887;57.196;-2.100;2023-03-19T00:53:56;12.20;;;11.80;;
22068;SDS011;13887;57.196;-2.100;2023-03-19T00:56:27;12.20;;;11.80;;
22068;SDS011;13887;57.196;-2.100;2023-03-19T00:58:57;12.00;;;11.60;;
22068;SDS011;13887;57.196;-2.100;2023-03-19T01:01:24;11.77;;;11.37;;
22068;SDS011;13887;57.196;-2.100;2023-03-19T01:03:55;11.80;;;11.40;;
22068;SDS011;13887;57.196;-2.100;2023-03-19T01:06:30;11.83;;;11.43;;
22068;SDS011;13887;57.196;-2.100;2023-03-19T01:08:57;12.40;;;12.00;;
22068;SDS011;13887;57.196;-2.100;2023-03-19T01:11:27;12.23;;;11.83;;
22068;SDS011;13887;57.196;-2.100;2023-03-19T01:13:55;12.07;;;11.67;;
22068;SDS011;13887;57.196;-2.100;2023-03-19T01:16:22;12.27;;;11.87;;
22068;SDS011;13887;57.196;-2.100;2023-03-19T01:18:49;12.03;;;11.63;;
22068;SDS011;13887;57.196;-2.100;2023-03-19T01:21:20;12.20;;;11.80;;
22068;SDS011;13887;57.196;-2.100;2023-03-19T01:23:48;11.80;;;11.40;;
22068;SDS011;13887;57.196;-2.100;2023-03-19T01:26:21;12.20;;;11.80;;
22068;SDS011;13887;57.196;-2.100;2023-03-19T01:28:56;12.60;;;12.20;;
22068;SDS011;13887;57.196;-2.100;2023-03-19T01:31:25;11.97;;;11.57;;
22068;SDS011;13887;57.196;-2.100;2023-03-19T01:34:08;11.83;;;11.43;;
22068;SDS011;13887;57.196;-2.100;2023-03-19T01:36:44;12.20;;;11.80;;
22068;SDS011;13887;57.196;-2.100;2023-03-19T01:39:19;12.27;;;11.87;;
22068;SDS011;13887;57.196;-2.100;2023-03-19T01:41:48;12.20;;;11.80;;
22068;SDS011;13887;57.196;-2.100;2023-03-19T01:44:37;11.80;;;11.40;;
22068;SDS011;13887;57.196;-2.100;2023-03-19T01:50:23;12.20;;;11.80;;
22068;SDS011;13887;57.196;-2.100;2023-03-19T01:53:23;12.00;;;11.60;;
22068;SDS011;13887;57.196;-2.100;2023-03-19T01:56:03;12.20;;;11.80;;
22068;SDS011;13887;57.196;-2.100;2023-03-19T01:59:17;12.00;;;11.60;;
22068;SDS011;13887;57.196;-2.100;2023-03-19T02:04:52;11.73;;;11.33;;
22068;SDS011;13887;57.196;-2.100;2023-03-19T02:07:29;11.50;;;11.10;;
22068;SDS011;13887;57.196;-2.100;2023-03-19T02:09:59;11.83;;;11.43;;
22068;SDS011;13887;57.196;-2.100;2023-03-19T02:12:27;12.07;;;11.67;;
22068;SDS011;13887;57.196;-2.100;2023-03-19T02:14:55;11.80;;;11.40;;
22068;SDS011;13887;57.196;-2.100;2023-03-19T02:17:22;12.40;;;12.00;;
22068;SDS011;13887;57.196;-2.100;2023-03-19T02:22:21;12.20;;;11.80;;
22068;SDS011;13887;57.196;-2.100;2023-03-19T02:24:56;11.53;;;11.13;;
22068;SDS011;13887;57.196;-2.100;2023-03-19T02:27:25;11.97;;;11.57;;
22068;SDS011;13887;57.196;-2.100;2023-03-19T02:29:52;12.00;;;11.60;;
22068;SDS011;13887;57.196;-2.100;2023-03-19T02:32:21;12.13;;;11.73;;
22068;SDS011;13887;57.196;-2.100;2023-03-19T02:34:52;11.70;;;11.30;;
22068;SDS011;13887;57.196;-2.100;2023-03-19T02:37:23;11.70;;;11.30;;
22068;SDS011;13887;57.196;-2.100;2023-03-19T02:42:49;11.63;;;11.23;;
22068;SDS011;13887;57.196;-2.100;2023-03-19T02:45:18;12.00;;;11.60;;
22068;SDS011;13887;57.196;-2.100;2023-03-19T02:47:45;11.90;;;11.50;;
22068;SDS011;13887;57.196;-2.100;2023-03-19T02:50:13;11.90;;;11.50;;
22068;SDS011;13887;57.196;-2.100;2023-03-19T02:52:40;12.03;;;11.63;;
22068;SDS011;13887;57.196;-2.100;2023-03-19T02:55:07;12.30;;;11.90;;
22068;SDS011;13887;57.196;-2.100;2023-03-19T02:57:38;12.03;;;11.63;;
22068;SDS011;13887;57.196;-2.100;2023-03-19T03:00:05;12.03;;;11.63;;
22068;SDS011;13887;57.196;-2.100;2023-03-19T03:02:33;11.77;;;11.37;;
22068;SDS011;13887;57.196;-2.100;2023-03-19T03:05:00;11.13;;;10.83;;
22068;SDS011;13887;57.196;-2.100;2023-03-19T03:07:31;11.87;;;11.47;;
22068;SDS011;13887;57.196;-2.100;2023-03-19T03:09:58;11.80;;;11.40;;
22068;SDS011;13887;57.196;-2.100;2023-03-19T03:12:28;11.70;;;11.30;;
22068;SDS011;13887;57.196;-2.100;2023-03-19T03:14:58;11.80;;;11.40;;
22068;SDS011;13887;57.196;-2.100;2023-03-19T03:17:27;11.80;;;11.40;;
22068;SDS011;13887;57.196;-2.100;2023-03-19T03:19:54;11.93;;;11.53;;
22068;SDS011;13887;57.196;-2.100;2023-03-19T03:22:21;11.93;;;11.53;;
22068;SDS011;13887;57.196;-2.100;2023-03-19T03:24:49;11.83;;;11.43;;
22068;SDS011;13887;57.196;-2.100;2023-03-19T03:27:19;12.07;;;11.67;;
22068;SDS011;13887;57.196;-2.100;2023-03-19T03:29:46;12.13;;;11.73;;
22068;SDS011;13887;57.196;-2.100;2023-03-19T03:32:17;11.90;;;11.50;;
22068;SDS011;13887;57.196;-2.100;2023-03-19T03:34:46;11.83;;;11.43;;
22068;SDS011;13887;57.196;-2.100;2023-03-19T03:37:18;12.10;;;11.70;;
22068;SDS011;13887;57.196;-2.100;2023-03-19T03:39:45;12.13;;;11.73;;
22068;SDS011;13887;57.196;-2.100;2023-03-19T03:42:12;11.80;;;11.40;;
22068;SDS011;13887;57.196;-2.100;2023-03-19T03:44:40;11.77;;;11.37;;
22068;SDS011;13887;57.196;-2.100;2023-03-19T03:47:08;11.83;;;11.43;;
22068;SDS011;13887;57.196;-2.100;2023-03-19T03:49:35;11.57;;;11.17;;
22068;SDS011;13887;57.196;-2.100;2023-03-19T03:52:05;12.20;;;11.80;;
22068;SDS011;13887;57.196;-2.100;2023-03-19T03:54:39;12.10;;;11.70;;
22068;SDS011;13887;57.196;-2.100;2023-03-19T03:57:08;11.97;;;11.57;;
22068;SDS011;13887;57.196;-2.100;2023-03-19T03:59:39;11.67;;;11.27;;
22068;SDS011;13887;57.196;-2.100;2023-03-19T04:02:06;11.40;;;11.00;;
22068;SDS011;13887;57.196;-2.100;2023-03-19T04:04:34;11.60;;;11.20;;
22068;SDS011;13887;57.196;-2.100;2023-03-19T04:07:01;11.27;;;10.90;;
22068;SDS011;13887;57.196;-2.100;2023-03-19T04:09:39;11.17;;;10.87;;
22068;SDS011;13887;57.196;-2.100;2023-03-19T04:12:12;11.80;;;11.40;;
22068;SDS011;13887;57.196;-2.100;2023-03-19T04:14:41;11.57;;;11.17;;
22068;SDS011;13887;57.196;-2.100;2023-03-19T04:17:08;11.67;;;11.27;;
22068;SDS011;13887;57.196;-2.100;2023-03-19T04:19:40;11.43;;;11.03;;
22068;SDS011;13887;57.196;-2.100;2023-03-19T04:22:14;11.20;;;10.90;;
22068;SDS011;13887;57.196;-2.100;2023-03-19T04:24:41;11.33;;;10.93;;
22068;SDS011;13887;57.196;-2.100;2023-03-19T04:27:08;11.80;;;11.40;;
22068;SDS011;13887;57.196;-2.100;2023-03-19T04:29:38;11.50;;;11.10;;
22068;SDS011;13887;57.196;-2.100;2023-03-19T04:32:07;11.47;;;11.07;;
22068;SDS011;13887;57.196;-2.100;2023-03-19T04:34:35;11.23;;;10.87;;
22068;SDS011;13887;57.196;-2.100;2023-03-19T04:37:03;11.13;;;10.83;;
22068;SDS011;13887;57.196;-2.100;2023-03-19T04:39:36;11.00;;;10.70;;
22068;SDS011;13887;57.196;-2.100;2023-03-19T04:42:05;11.13;;;10.80;;
22068;SDS011;13887;57.196;-2.100;2023-03-19T04:44:44;11.00;;;10.70;;
22068;SDS011;13887;57.196;-2.100;2023-03-19T04:47:14;10.90;;;10.60;;
22068;SDS011;13887;57.196;-2.100;2023-03-19T04:49:54;11.00;;;10.70;;
22068;SDS011;13887;57.196;-2.100;2023-03-19T04:52:24;11.30;;;10.90;;
22068;SDS011;13887;57.196;-2.100;2023-03-19T04:54:53;11.10;;;10.80;;
22068;SDS011;13887;57.196;-2.100;2023-03-19T04:57:20;11.13;;;10.83;;
22068;SDS011;13887;57.196;-2.100;2023-03-19T04:59:52;11.60;;;11.20;;
22068;SDS011;13887;57.196;-2.100;2023-03-19T05:02:20;11.63;;;11.23;;
22068;SDS011;13887;57.196;-2.100;2023-03-19T05:04:48;11.07;;;10.77;;
22068;SDS011;13887;57.196;-2.100;2023-03-19T05:07:17;11.60;;;11.20;;
22068;SDS011;13887;57.196;-2.100;2023-03-19T05:09:44;11.53;;;11.13;;
22068;SDS011;13887;57.196;-2.100;2023-03-19T05:12:13;11.87;;;11.47;;
22068;SDS011;13887;57.196;-2.100;2023-03-19T05:14:46;11.73;;;11.33;;
22068;SDS011;13887;57.196;-2.100;2023-03-19T05:17:19;11.93;;;11.53;;
22068;SDS011;13887;57.196;-2.100;2023-03-19T05:20:07;11.83;;;11.43;;
22068;SDS011;13887;57.196;-2.100;2023-03-19T05:22:38;11.90;;;11.50;;
22068;SDS011;13887;57.196;-2.100;2023-03-19T05:25:06;11.70;;;11.30;;
22068;SDS011;13887;57.196;-2.100;2023-03-19T05:27:33;11.50;;;11.10;;
22068;SDS011;13887;57.196;-2.100;2023-03-19T05:30:04;11.33;;;10.93;;
22068;SDS011;13887;57.196;-2.100;2023-03-19T05:32:48;11.70;;;11.30;;
22068;SDS011;13887;57.196;-2.100;2023-03-19T05:35:27;11.30;;;10.90;;
22068;SDS011;13887;57.196;-2.100;2023-03-19T05:37:57;12.00;;;11.60;;
22068;SDS011;13887;57.196;-2.100;2023-03-19T05:40:25;11.47;;;11.07;;
22068;SDS011;13887;57.196;-2.100;2023-03-19T05:42:53;12.10;;;11.70;;
22068;SDS011;13887;57.196;-2.100;2023-03-19T05:45:23;11.60;;;11.20;;
22068;SDS011;13887;57.196;-2.100;2023-03-19T05:47:54;12.10;;;11.70;;
22068;SDS011;13887;57.196;-2.100;2023-03-19T05:50:23;12.23;;;11.83;;
22068;SDS011;13887;57.196;-2.100;2023-03-19T05:53:09;12.37;;;11.97;;
22068;SDS011;13887;57.196;-2.100;2023-03-19T05:55:44;12.50;;;12.10;;
22068;SDS011;13887;57.196;-2.100;2023-03-19T05:58:12;12.37;;;11.97;;
22068;SDS011;13887;57.196;-2.100;2023-03-19T06:00:39;12.80;;;12.40;;
22068;SDS011;13887;57.196;-2.100;2023-03-19T06:03:07;13.10;;;12.70;;
22068;SDS011;13887;57.196;-2.100;2023-03-19T06:05:47;12.60;;;12.20;;
22068;SDS011;13887;57.196;-2.100;2023-03-19T06:08:40;12.80;;;12.40;;
22068;SDS011;13887;57.196;-2.100;2023-03-19T06:11:31;12.57;;;12.17;;
22068;SDS011;13887;57.196;-2.100;2023-03-19T06:14:21;13.30;;;12.90;;
22068;SDS011;13887;57.196;-2.100;2023-03-19T06:17:07;12.90;;;12.50;;
22068;SDS011;13887;57.196;-2.100;2023-03-19T06:19:35;12.90;;;12.50;;
22068;SDS011;13887;57.196;-2.100;2023-03-19T06:22:02;12.47;;;12.07;;
22068;SDS011;13887;57.196;-2.100;2023-03-19T06:24:30;13.13;;;12.73;;
22068;SDS011;13887;57.196;-2.100;2023-03-19T06:26:57;12.37;;;11.97;;
22068;SDS011;13887;57.196;-2.100;2023-03-19T06:29:27;12.43;;;12.03;;
22068;SDS011;13887;57.196;-2.100;2023-03-19T06:32:05;12.57;;;12.17;;
22068;SDS011;13887;57.196;-2.100;2023-03-19T06:34:41;12.17;;;11.77;;
22068;SDS011;13887;57.196;-2.100;2023-03-19T06:37:08;12.07;;;11.67;;
22068;SDS011;13887;57.196;-2.100;2023-03-19T06:39:35;12.40;;;12.00;;
22068;SDS011;13887;57.196;-2.100;2023-03-19T06:42:04;12.10;;;11.70;;
22068;SDS011;13887;57.196;-2.100;2023-03-19T06:44:32;12.10;;;11.70;;
22068;SDS011;13887;57.196;-2.100;2023-03-19T06:47:02;12.30;;;11.90;;
22068;SDS011;13887;57.196;-2.100;2023-03-19T06:49:32;12.13;;;11.73;;
22068;SDS011;13887;57.196;-2.100;2023-03-19T06:51:59;12.10;;;11.70;;
22068;SDS011;13887;57.196;-2.100;2023-03-19T06:54:29;12.00;;;11.60;;
22068;SDS011;13887;57.196;-2.100;2023-03-19T06:56:57;12.23;;;11.83;;
22068;SDS011;13887;57.196;-2.100;2023-03-19T06:59:29;12.37;;;11.97;;
22068;SDS011;13887;57.196;-2.100;2023-03-19T07:01:57;12.60;;;12.20;;
22068;SDS011;13887;57.196;-2.100;2023-03-19T07:04:24;12.33;;;11.93;;
22068;SDS011;13887;57.196;-2.100;2023-03-19T07:06:52;12.00;;;11.60;;
22068;SDS011;13887;57.196;-2.100;2023-03-19T07:09:19;12.37;;;11.97;;
22068;SDS011;13887;57.196;-2.100;2023-03-19T07:11:48;12.37;;;11.97;;
22068;SDS011;13887;57.196;-2.100;2023-03-19T07:14:16;12.23;;;11.83;;
22068;SDS011;13887;57.196;-2.100;2023-03-19T07:16:43;12.50;;;12.10;;
22068;SDS011;13887;57.196;-2.100;2023-03-19T07:19:10;12.50;;;12.10;;
22068;SDS011;13887;57.196;-2.100;2023-03-19T07:21:37;12.60;;;12.20;;
22068;SDS011;13887;57.196;-2.100;2023-03-19T07:24:05;12.30;;;11.90;;
22068;SDS011;13887;57.196;-2.100;2023-03-19T07:26:32;12.00;;;11.60;;
22068;SDS011;13887;57.196;-2.100;2023-03-19T07:28:59;11.80;;;11.40;;
22068;SDS011;13887;57.196;-2.100;2023-03-19T07:31:27;12.00;;;11.60;;
22068;SDS011;13887;57.196;-2.100;2023-03-19T07:33:54;11.80;;;11.40;;
22068;SDS011;13887;57.196;-2.100;2023-03-19T07:36:21;12.77;;;12.37;;
22068;SDS011;13887;57.196;-2.100;2023-03-19T07:38:51;12.93;;;12.53;;
22068;SDS011;13887;57.196;-2.100;2023-03-19T07:41:22;13.00;;;12.60;;
22068;SDS011;13887;57.196;-2.100;2023-03-19T07:43:51;13.13;;;12.73;;
22068;SDS011;13887;57.196;-2.100;2023-03-19T07:46:19;13.13;;;12.73;;
22068;SDS011;13887;57.196;-2.100;2023-03-19T07:48:48;12.87;;;12.47;;
22068;SDS011;13887;57.196;-2.100;2023-03-19T07:51:16;12.53;;;12.13;;
22068;SDS011;13887;57.196;-2.100;2023-03-19T07:53:43;12.90;;;12.50;;
22068;SDS011;13887;57.196;-2.100;2023-03-19T07:56:10;12.80;;;12.40;;
22068;SDS011;13887;57.196;-2.100;2023-03-19T07:58:39;13.17;;;12.77;;
22068;SDS011;13887;57.196;-2.100;2023-03-19T08:01:07;13.63;;;13.13;;
22068;SDS011;13887;57.196;-2.100;2023-03-19T08:03:34;13.30;;;12.87;;
22068;SDS011;13887;57.196;-2.100;2023-03-19T08:06:04;13.20;;;12.80;;
22068;SDS011;13887;57.196;-2.100;2023-03-19T08:08:33;13.50;;;13.00;;
22068;SDS011;13887;57.196;-2.100;2023-03-19T08:11:02;13.33;;;12.83;;
22068;SDS011;13887;57.196;-2.100;2023-03-19T08:13:30;13.30;;;12.83;;
22068;SDS011;13887;57.196;-2.100;2023-03-19T08:15:59;13.63;;;13.13;;
22068;SDS011;13887;57.196;-2.100;2023-03-19T08:18:28;13.63;;;13.13;;
22068;SDS011;13887;57.196;-2.100;2023-03-19T08:20:55;14.17;;;13.67;;
22068;SDS011;13887;57.196;-2.100;2023-03-19T08:23:26;13.70;;;13.20;;
22068;SDS011;13887;57.196;-2.100;2023-03-19T08:25:53;13.73;;;13.23;;
22068;SDS011;13887;57.196;-2.100;2023-03-19T08:28:22;13.20;;;12.80;;
22068;SDS011;13887;57.196;-2.100;2023-03-19T08:30:49;12.80;;;12.40;;
22068;SDS011;13887;57.196;-2.100;2023-03-19T08:33:17;13.43;;;13.03;;
22068;SDS011;13887;57.196;-2.100;2023-03-19T08:35:44;13.50;;;13.00;;
22068;SDS011;13887;57.196;-2.100;2023-03-19T08:38:11;12.87;;;12.47;;
22068;SDS011;13887;57.196;-2.100;2023-03-19T08:40:43;12.53;;;12.13;;
22068;SDS011;13887;57.196;-2.100;2023-03-19T08:43:13;12.07;;;11.67;;
22068;SDS011;13887;57.196;-2.100;2023-03-19T08:45:40;12.63;;;12.23;;
22068;SDS011;13887;57.196;-2.100;2023-03-19T08:48:08;12.87;;;12.47;;
22068;SDS011;13887;57.196;-2.100;2023-03-19T08:50:38;12.90;;;12.50;;
22068;SDS011;13887;57.196;-2.100;2023-03-19T08:53:10;13.00;;;12.60;;
22068;SDS011;13887;57.196;-2.100;2023-03-19T08:55:37;13.23;;;12.83;;
22068;SDS011;13887;57.196;-2.100;2023-03-19T08:58:07;12.30;;;11.90;;
22068;SDS011;13887;57.196;-2.100;2023-03-19T09:00:37;11.90;;;11.50;;
22068;SDS011;13887;57.196;-2.100;2023-03-19T09:03:10;12.60;;;12.20;;
22068;SDS011;13887;57.196;-2.100;2023-03-19T09:05:37;12.90;;;12.50;;
22068;SDS011;13887;57.196;-2.100;2023-03-19T09:08:04;12.33;;;11.93;;
22068;SDS011;13887;57.196;-2.100;2023-03-19T09:10:32;12.83;;;12.43;;
22068;SDS011;13887;57.196;-2.100;2023-03-19T09:13:00;12.80;;;12.40;;
22068;SDS011;13887;57.196;-2.100;2023-03-19T09:15:30;13.87;;;13.37;;
22068;SDS011;13887;57.196;-2.100;2023-03-19T09:17:58;13.80;;;13.30;;
22068;SDS011;13887;57.196;-2.100;2023-03-19T09:20:30;12.50;;;12.10;;
22068;SDS011;13887;57.196;-2.100;2023-03-19T09:22:57;12.70;;;12.30;;
22068;SDS011;13887;57.196;-2.100;2023-03-19T09:25:30;13.40;;;13.00;;
22068;SDS011;13887;57.196;-2.100;2023-03-19T09:27:58;13.30;;;12.90;;
22068;SDS011;13887;57.196;-2.100;2023-03-19T09:30:26;13.00;;;12.60;;
22068;SDS011;13887;57.196;-2.100;2023-03-19T09:32:56;12.87;;;12.47;;
22068;SDS011;13887;57.196;-2.100;2023-03-19T09:35:27;12.27;;;11.87;;
22068;SDS011;13887;57.196;-2.100;2023-03-19T09:37:59;12.73;;;12.33;;
22068;SDS011;13887;57.196;-2.100;2023-03-19T09:46:12;12.80;;;12.40;;
22068;SDS011;13887;57.196;-2.100;2023-03-19T09:48:55;11.57;;;11.17;;
22068;SDS011;13887;57.196;-2.100;2023-03-19T09:51:29;11.50;;;11.10;;
22068;SDS011;13887;57.196;-2.100;2023-03-19T09:54:28;11.80;;;11.40;;
22068;SDS011;13887;57.196;-2.100;2023-03-19T09:57:03;11.70;;;11.30;;
22068;SDS011;13887;57.196;-2.100;2023-03-19T09:59:31;11.80;;;11.40;;
22068;SDS011;13887;57.196;-2.100;2023-03-19T10:10:22;11.90;;;11.50;;
22068;SDS011;13887;57.196;-2.100;2023-03-19T10:15:33;11.87;;;11.47;;
22068;SDS011;13887;57.196;-2.100;2023-03-19T10:18:06;12.10;;;11.70;;
22068;SDS011;13887;57.196;-2.100;2023-03-19T10:23:51;12.37;;;11.97;;
22068;SDS011;13887;57.196;-2.100;2023-03-19T10:26:38;12.43;;;12.03;;
22068;SDS011;13887;57.196;-2.100;2023-03-19T10:29:14;11.70;;;11.30;;
22068;SDS011;13887;57.196;-2.100;2023-03-19T10:34:35;12.50;;;12.10;;
22068;SDS011;13887;57.196;-2.100;2023-03-19T10:37:05;11.17;;;10.77;;
22068;SDS011;13887;57.196;-2.100;2023-03-19T10:39:41;12.20;;;11.80;;
22068;SDS011;13887;57.196;-2.100;2023-03-19T10:45:30;11.77;;;11.37;;
22068;SDS011;13887;57.196;-2.100;2023-03-19T10:48:00;11.87;;;11.47;;
22068;SDS011;13887;57.196;-2.100;2023-03-19T10:53:34;12.20;;;11.80;;
22068;SDS011;13887;57.196;-2.100;2023-03-19T10:56:05;12.47;;;12.07;;
22068;SDS011;13887;57.196;-2.100;2023-03-19T10:58:41;12.13;;;11.73;;
22068;SDS011;13887;57.196;-2.100;2023-03-19T11:01:41;12.37;;;11.97;;
22068;SDS011;13887;57.196;-2.100;2023-03-19T11:04:12;11.67;;;11.27;;
22068;SDS011;13887;57.196;-2.100;2023-03-19T11:06:49;12.50;;;12.10;;
22068;SDS011;13887;57.196;-2.100;2023-03-19T11:09:21;12.17;;;11.77;;
22068;SDS011;13887;57.196;-2.100;2023-03-19T11:11:52;11.30;;;10.90;;
22068;SDS011;13887;57.196;-2.100;2023-03-19T11:14:25;12.03;;;11.63;;
22068;SDS011;13887;57.196;-2.100;2023-03-19T11:16:57;12.20;;;11.80;;
22068;SDS011;13887;57.196;-2.100;2023-03-19T11:19:38;11.53;;;11.13;;
22068;SDS011;13887;57.196;-2.100;2023-03-19T11:24:39;12.27;;;11.87;;
22068;SDS011;13887;57.196;-2.100;2023-03-19T11:27:17;11.90;;;11.50;;
22068;SDS011;13887;57.196;-2.100;2023-03-19T11:29:45;12.20;;;11.80;;
22068;SDS011;13887;57.196;-2.100;2023-03-19T11:32:17;11.80;;;11.40;;
22068;SDS011;13887;57.196;-2.100;2023-03-19T11:34:57;12.07;;;11.67;;
22068;SDS011;13887;57.196;-2.100;2023-03-19T11:51:34;11.37;;;10.97;;
22068;SDS011;13887;57.196;-2.100;2023-03-19T12:09:26;11.10;;;10.80;;
22068;SDS011;13887;57.196;-2.100;2023-03-19T12:12:15;11.50;;;11.10;;
22068;SDS011;13887;57.196;-2.100;2023-03-19T12:15:04;11.03;;;10.73;;
22068;SDS011;13887;57.196;-2.100;2023-03-19T12:23:25;10.93;;;10.63;;
22068;SDS011;13887;57.196;-2.100;2023-03-19T12:26:08;10.90;;;10.60;;
22068;SDS011;13887;57.196;-2.100;2023-03-19T12:28:58;11.53;;;11.13;;
22068;SDS011;13887;57.196;-2.100;2023-03-19T12:39:39;10.90;;;10.60;;
22068;SDS011;13887;57.196;-2.100;2023-03-19T12:42:15;11.57;;;11.17;;
22068;SDS011;13887;57.196;-2.100;2023-03-19T12:44:47;11.60;;;11.20;;
22068;SDS011;13887;57.196;-2.100;2023-03-19T12:47:27;11.70;;;11.30;;
22068;SDS011;13887;57.196;-2.100;2023-03-19T12:50:03;11.87;;;11.47;;
22068;SDS011;13887;57.196;-2.100;2023-03-19T12:52:35;10.77;;;10.47;;
22068;SDS011;13887;57.196;-2.100;2023-03-19T12:58:21;11.80;;;11.40;;
22068;SDS011;13887;57.196;-2.100;2023-03-19T13:01:05;11.80;;;11.40;;
22068;SDS011;13887;57.196;-2.100;2023-03-19T13:03:45;12.27;;;11.87;;
22068;SDS011;13887;57.196;-2.100;2023-03-19T13:06:30;11.83;;;11.43;;
22068;SDS011;13887;57.196;-2.100;2023-03-19T13:09:07;11.90;;;11.50;;
22068;SDS011;13887;57.196;-2.100;2023-03-19T13:17:48;12.37;;;11.97;;
22068;SDS011;13887;57.196;-2.100;2023-03-19T13:20:49;12.20;;;11.80;;
22068;SDS011;13887;57.196;-2.100;2023-03-19T13:23:42;11.90;;;11.50;;
22068;SDS011;13887;57.196;-2.100;2023-03-19T13:26:12;11.70;;;11.30;;
22068;SDS011;13887;57.196;-2.100;2023-03-19T13:28:52;12.17;;;11.77;;
22068;SDS011;13887;57.196;-2.100;2023-03-19T13:31:32;12.23;;;11.83;;
22068;SDS011;13887;57.196;-2.100;2023-03-19T13:34:06;12.50;;;12.10;;
22068;SDS011;13887;57.196;-2.100;2023-03-19T13:36:44;12.20;;;11.80;;
22068;SDS011;13887;57.196;-2.100;2023-03-19T13:39:23;12.27;;;11.87;;
22068;SDS011;13887;57.196;-2.100;2023-03-19T13:44:51;12.43;;;12.03;;
22068;SDS011;13887;57.196;-2.100;2023-03-19T13:57:54;12.90;;;12.50;;
22068;SDS011;13887;57.196;-2.100;2023-03-19T14:03:30;12.00;;;11.60;;
22068;SDS011;13887;57.196;-2.100;2023-03-19T14:05:59;12.50;;;12.10;;
22068;SDS011;13887;57.196;-2.100;2023-03-19T14:08:28;12.37;;;11.97;;
22068;SDS011;13887;57.196;-2.100;2023-03-19T14:11:10;12.97;;;12.57;;
22068;SDS011;13887;57.196;-2.100;2023-03-19T14:13:55;12.50;;;12.10;;
22068;SDS011;13887;57.196;-2.100;2023-03-19T14:16:32;12.40;;;12.00;;
22068;SDS011;13887;57.196;-2.100;2023-03-19T14:19:03;12.23;;;11.83;;
22068;SDS011;13887;57.196;-2.100;2023-03-19T14:27:25;12.90;;;12.50;;
22068;SDS011;13887;57.196;-2.100;2023-03-19T14:30:01;12.50;;;12.10;;
22068;SDS011;13887;57.196;-2.100;2023-03-19T14:32:36;12.57;;;12.17;;
22068;SDS011;13887;57.196;-2.100;2023-03-19T14:35:12;12.97;;;12.57;;
22068;SDS011;13887;57.196;-2.100;2023-03-19T14:37:47;11.80;;;11.40;;
22068;SDS011;13887;57.196;-2.100;2023-03-19T14:40:19;11.00;;;10.70;;
22068;SDS011;13887;57.196;-2.100;2023-03-19T14:43:03;11.17;;;10.87;;
22068;SDS011;13887;57.196;-2.100;2023-03-19T14:45:45;11.03;;;10.73;;
22068;SDS011;13887;57.196;-2.100;2023-03-19T14:51:51;10.73;;;10.43;;
22068;SDS011;13887;57.196;-2.100;2023-03-19T14:54:33;12.50;;;12.10;;
22068;SDS011;13887;57.196;-2.100;2023-03-19T14:57:16;12.80;;;12.40;;
22068;SDS011;13887;57.196;-2.100;2023-03-19T14:59:53;12.70;;;12.30;;
22068;SDS011;13887;57.196;-2.100;2023-03-19T15:07:45;11.50;;;11.10;;
22068;SDS011;13887;57.196;-2.100;2023-03-19T15:10:19;11.33;;;10.93;;
22068;SDS011;13887;57.196;-2.100;2023-03-19T15:15:38;12.33;;;11.93;;
22068;SDS011;13887;57.196;-2.100;2023-03-19T15:18:09;12.50;;;12.10;;
22068;SDS011;13887;57.196;-2.100;2023-03-19T15:20:40;12.60;;;12.20;;
22068;SDS011;13887;57.196;-2.100;2023-03-19T15:23:10;12.47;;;12.07;;
22068;SDS011;13887;57.196;-2.100;2023-03-19T15:25:53;12.60;;;12.20;;
22068;SDS011;13887;57.196;-2.100;2023-03-19T15:28:27;11.87;;;11.47;;
22068;SDS011;13887;57.196;-2.100;2023-03-19T15:31:00;12.27;;;11.87;;
22068;SDS011;13887;57.196;-2.100;2023-03-19T15:33:51;12.77;;;12.37;;
22068;SDS011;13887;57.196;-2.100;2023-03-19T15:38:53;12.77;;;12.37;;
22068;SDS011;13887;57.196;-2.100;2023-03-19T15:41:26;12.47;;;12.07;;
22068;SDS011;13887;57.196;-2.100;2023-03-19T15:44:00;12.70;;;12.30;;
22068;SDS011;13887;57.196;-2.100;2023-03-19T15:46:33;12.80;;;12.40;;
22068;SDS011;13887;57.196;-2.100;2023-03-19T15:49:15;12.30;;;11.90;;
22068;SDS011;13887;57.196;-2.100;2023-03-19T15:51:49;12.40;;;12.00;;
22068;SDS011;13887;57.196;-2.100;2023-03-19T15:54:24;12.70;;;12.30;;
22068;SDS011;13887;57.196;-2.100;2023-03-19T15:56:55;12.37;;;11.97;;
22068;SDS011;13887;57.196;-2.100;2023-03-19T15:59:29;12.67;;;12.27;;
22068;SDS011;13887;57.196;-2.100;2023-03-19T16:01:58;12.60;;;12.20;;
22068;SDS011;13887;57.196;-2.100;2023-03-19T16:04:31;12.10;;;11.70;;
22068;SDS011;13887;57.196;-2.100;2023-03-19T16:07:24;12.37;;;11.97;;
22068;SDS011;13887;57.196;-2.100;2023-03-19T16:15:58;12.50;;;12.10;;
22068;SDS011;13887;57.196;-2.100;2023-03-19T16:18:45;12.27;;;11.87;;
22068;SDS011;13887;57.196;-2.100;2023-03-19T16:21:38;11.90;;;11.50;;
22068;SDS011;13887;57.196;-2.100;2023-03-19T16:26:37;12.63;;;12.23;;
22068;SDS011;13887;57.196;-2.100;2023-03-19T16:29:18;12.87;;;12.47;;
22068;SDS011;13887;57.196;-2.100;2023-03-19T16:31:52;12.97;;;12.57;;
22068;SDS011;13887;57.196;-2.100;2023-03-19T16:37:30;12.80;;;12.40;;
22068;SDS011;13887;57.196;-2.100;2023-03-19T16:43:05;11.90;;;11.50;;
22068;SDS011;13887;57.196;-2.100;2023-03-19T16:45:34;11.10;;;10.80;;
22068;SDS011;13887;57.196;-2.100;2023-03-19T16:48:01;11.80;;;11.40;;
22068;SDS011;13887;57.196;-2.100;2023-03-19T16:50:32;11.43;;;11.03;;
22068;SDS011;13887;57.196;-2.100;2023-03-19T16:55:47;12.52;;;12.13;;
22068;SDS011;13887;57.196;-2.100;2023-03-19T17:00:43;12.13;;;11.73;;
22068;SDS011;13887;57.196;-2.100;2023-03-19T17:03:15;12.20;;;11.80;;
22068;SDS011;13887;57.196;-2.100;2023-03-19T17:05:44;12.13;;;11.73;;
22068;SDS011;13887;57.196;-2.100;2023-03-19T17:08:16;12.60;;;12.20;;
22068;SDS011;13887;57.196;-2.100;2023-03-19T17:10:48;12.20;;;11.80;;